PDT,Max TemperatureF,Mean TemperatureF,Min TemperatureF,Max Dew PointF,MeanDew PointF,Min DewpointF,Max Humidity, Mean Humidity, Min Humidity, Max Sea Level PressureIn, Mean Sea Level PressureIn, Min Sea Level PressureIn, Max VisibilityMiles, Mean VisibilityMiles, Min VisibilityMiles, Max Wind SpeedMPH, Mean Wind SpeedMPH, Max Gust SpeedMPH,PrecipitationIn, CloudCover, Events, WindDirDegrees
2013-5-1,80,72,63,54,53,52,72,56,39,30.09,29.97,29.90,10,10,10,13,3,20,0.00,4,,221
2013-5-2,98,78,58,54,40,-2,80,41,2,30.10,30.04,29.97,10,10,8,22,5,30,0.00,0,,305
2013-5-3,98,79,59,54,31,11,56,30,4,30.00,29.86,29.77,10,10,10,15,4,18,0.00,0,,240
2013-5-4,75,69,62,57,54,50,78,62,46,29.85,29.78,29.75,10,9,8,15,5,21,0.00,3,,177
2013-5-5,71,67,63,55,51,49,67,57,47,29.95,29.90,29.83,10,10,5,15,8,22,0.00,8,Rain,166
2013-5-6,70,65,60,57,55,51,84,69,53,30.01,29.95,29.90,10,7,1,15,7,21,0.42,8,Rain,152
2013-5-7,75,68,60,55,51,45,78,58,38,30.06,30.01,29.98,10,10,8,14,6,21,0.02,5,Rain,187
2013-5-8,77,70,62,54,51,45,72,55,38,30.09,30.07,30.05,10,10,10,15,4,20,0.00,4,,245
2013-5-9,75,68,60,56,53,50,72,59,46,30.09,30.06,30.01,10,10,10,12,4,17,0.00,2,Rain,168
2013-5-10,84,73,61,58,56,54,84,63,42,30.08,30.05,29.99,10,10,8,13,3,18,0.00,1,,163
2013-5-11,87,75,63,60,58,55,78,61,43,30.07,30.03,29.97,10,8,5,10,3,15,0.00,1,,206
2013-5-12,94,79,64,61,59,51,87,59,30,30.05,29.99,29.89,10,7,2,10,2,14,0.00,2,,214
2013-5-13,104,86,68,60,54,46,70,43,15,29.95,29.91,29.85,10,10,8,13,3,18,0.00,0,,234
2013-5-14,85,75,65,56,53,46,68,50,31,29.99,29.94,29.89,10,10,10,12,4,17,0.00,0,,226
2013-5-15,77,70,63,56,54,53,73,60,46,30.03,29.99,29.95,10,10,9,12,5,17,0.00,4,,191
2013-5-16,77,71,64,55,54,52,67,57,46,29.98,29.94,29.88,10,10,10,12,5,17,0.00,7,,181
2013-5-17,77,71,64,56,55,52,73,61,49,29.99,29.94,29.90,10,10,9,14,5,20,0.00,6,,196
2013-5-18,78,71,64,55,54,53,73,58,43,30.03,30.00,29.96,10,10,10,12,4,17,0.00,4,,202
2013-5-19,78,71,64,57,55,53,73,58,43,29.99,29.94,29.87,10,10,10,12,4,16,0.00,2,,178
2013-5-20,86,74,62,59,57,55,78,59,40,29.94,29.92,29.87,10,10,9,12,3,16,0.00,1,,199
2013-5-21,82,74,66,59,58,56,78,62,45,29.94,29.89,29.83,10,9,7,12,4,17,0.00,4,,188
2013-5-22,77,72,66,57,54,53,73,58,43,29.84,29.81,29.77,10,10,10,13,5,17,0.00,6,,187
2013-5-23,76,69,62,54,52,50,72,58,43,29.93,29.88,29.82,10,10,9,13,6,17,0.00,5,,208
2013-5-24,76,71,65,54,52,48,67,55,43,29.99,29.95,29.91,10,10,9,13,5,17,0.00,4,,190
2013-5-25,78,70,61,53,51,49,69,53,36,30.02,29.99,29.96,10,10,10,13,5,17,0.00,3,,180
2013-5-26,75,68,61,55,53,50,72,59,46,30.04,30.01,29.99,10,10,10,12,5,17,0.00,3,,163
2013-5-27,80,72,63,57,55,53,72,58,43,29.99,29.93,29.86,10,10,10,13,4,21,0.00,3,,166
2013-5-28,78,72,65,59,57,54,73,58,43,29.87,29.81,29.74,10,10,10,14,6,21,0.00,4,,181
2013-5-29,82,73,64,59,57,55,78,60,42,29.81,29.77,29.71,10,10,9,13,4,17,0.00,2,,183
2013-5-30,81,73,64,59,58,57,78,62,45,29.88,29.82,29.76,10,10,8,13,4,16,0.00,3,,192
2013-5-31,84,75,66,60,58,57,73,58,43,29.91,29.86,29.80,10,10,9,9,3,13,0.00,4,,184